createdAt,value
2019-03-28T00:01:37.388Z,101428.98
2019-03-28T00:05:42.119Z,101428.98
2019-03-28T00:09:45.654Z,101433.07
2019-03-28T00:13:49.016Z,101431.41
2019-03-28T00:17:52.659Z,101428.05
2019-03-28T00:21:56.043Z,101436.06
2019-03-28T00:25:59.709Z,101432.41
2019-03-28T00:30:05.229Z,101439.48
2019-03-28T00:34:10.185Z,101435.14
2019-03-28T00:38:13.900Z,101431.40
2019-03-28T00:42:17.422Z,101435.00
2019-03-28T00:46:21.202Z,101432.95
2019-03-28T00:50:25.792Z,101431.33
2019-03-28T00:54:30.314Z,101437.53
2019-03-28T00:58:34.257Z,101446.31
2019-03-28T01:02:37.989Z,101446.47
2019-03-28T01:06:41.706Z,101443.09
2019-03-28T01:10:45.688Z,101439.41
2019-03-28T01:14:49.192Z,101451.21
2019-03-28T01:18:53.931Z,101448.70
2019-03-28T01:22:57.473Z,101442.62
2019-03-28T01:27:01.198Z,101450.02
2019-03-28T01:31:05.037Z,101438.84
2019-03-28T01:35:09.849Z,101437.83
2019-03-28T01:39:13.693Z,101433.36
2019-03-28T01:43:17.236Z,101438.73
2019-03-28T01:47:21.019Z,101441.44
2019-03-28T01:51:24.486Z,101439.66
2019-03-28T01:55:28.106Z,101431.77
2019-03-28T01:59:31.676Z,101424.91
2019-03-28T02:03:35.299Z,101416.41
2019-03-28T02:07:38.789Z,101422.25
2019-03-28T02:11:42.320Z,101419.21
2019-03-28T02:15:45.775Z,101425.73
2019-03-28T02:19:49.403Z,101431.72
2019-03-28T02:23:52.887Z,101424.52
2019-03-28T02:27:56.473Z,101422.83
2019-03-28T02:32:00.386Z,101421.53
2019-03-28T02:36:03.853Z,101425.05
2019-03-28T02:40:08.354Z,101426.39
2019-03-28T02:44:12.237Z,101427.69
2019-03-28T02:48:15.944Z,101423.48
2019-03-28T02:52:21.543Z,101442.86
2019-03-28T02:56:25.386Z,101444.25
2019-03-28T03:00:28.992Z,101454.68
2019-03-28T03:04:32.603Z,101450.39
2019-03-28T03:08:36.175Z,101440.86
2019-03-28T03:12:39.627Z,101438.73
2019-03-28T03:16:43.207Z,101443.28
2019-03-28T03:20:46.915Z,101444.12
2019-03-28T03:24:53.714Z,101441.51
2019-03-28T03:28:57.145Z,101450.28
2019-03-28T03:33:02.220Z,101445.54
2019-03-28T03:37:05.867Z,101458.81
2019-03-28T03:41:09.367Z,101469.19
2019-03-28T03:45:13.054Z,101472.23
2019-03-28T03:49:18.175Z,101473.98
2019-03-28T03:53:21.700Z,101475.04
2019-03-28T03:57:25.423Z,101484.84
2019-03-28T04:01:29.085Z,101495.81
2019-03-28T04:05:33.034Z,101506.79
2019-03-28T04:09:36.582Z,101486.38
2019-03-28T04:13:40.183Z,101484.52
2019-03-28T04:17:43.875Z,101511.10
2019-03-28T04:21:47.586Z,101528.05
2019-03-28T04:25:51.215Z,101519.88
2019-03-28T04:29:54.943Z,101523.27
2019-03-28T04:33:58.435Z,101524.37
2019-03-28T04:38:02.066Z,101523.45
2019-03-28T04:42:05.489Z,101522.98
2019-03-28T04:46:09.126Z,101531.11
2019-03-28T04:50:12.588Z,101531.16
2019-03-28T04:54:16.390Z,101529.33
2019-03-28T04:58:21.752Z,101526.58
2019-03-28T05:02:26.204Z,101525.14
2019-03-28T05:06:29.689Z,101524.13
2019-03-28T05:10:33.388Z,101524.95
2019-03-28T05:14:37.033Z,101526.12
2019-03-28T05:18:40.625Z,101525.09
2019-03-28T05:22:43.988Z,101524.51
2019-03-28T05:26:47.395Z,101511.67
2019-03-28T05:30:50.811Z,101513.13
2019-03-28T05:34:55.096Z,101520.91
2019-03-28T05:38:58.535Z,101520.98
2019-03-28T05:43:02.101Z,101518.55
2019-03-28T05:47:05.550Z,101514.75
2019-03-28T05:51:08.982Z,101526.70
2019-03-28T05:55:12.419Z,101523.81
2019-03-28T05:59:15.872Z,101529.78
2019-03-28T06:03:19.226Z,101533.83
2019-03-28T06:07:22.649Z,101551.72
2019-03-28T06:11:26.057Z,101545.98
2019-03-28T06:15:29.629Z,101553.97
2019-03-28T06:19:33.096Z,101551.45
2019-03-28T06:23:36.537Z,101553.75
2019-03-28T06:27:39.834Z,101541.68
2019-03-28T06:31:54.765Z,101527.19
2019-03-28T06:35:48.553Z,101529.66
2019-03-28T06:39:52.080Z,101527.57
2019-03-28T06:43:55.397Z,101516.20
2019-03-28T06:47:58.788Z,101514.31
2019-03-28T06:52:02.258Z,101512.41
2019-03-28T06:56:06.159Z,101507.91
2019-03-28T07:00:11.183Z,101510.77
2019-03-28T07:04:15.073Z,101522.58
2019-03-28T07:08:18.384Z,101515.48
2019-03-28T07:12:22.718Z,101512.34
2019-03-28T07:16:25.999Z,101514.09
2019-03-28T07:20:29.368Z,101504.08
2019-03-28T07:24:32.908Z,101501.06
2019-03-28T07:28:36.254Z,101502.35
2019-03-28T07:32:43.000Z,101504.17
2019-03-28T07:36:45.144Z,101498.44
2019-03-28T07:40:48.455Z,101520.65
2019-03-28T07:44:51.809Z,101521.68
2019-03-28T07:48:55.175Z,101541.09
2019-03-28T07:53:00.639Z,101541.09
2019-03-28T07:57:03.998Z,101526.53
2019-03-28T08:01:07.572Z,101518.78
2019-03-28T08:05:11.624Z,101529.74
2019-03-28T08:09:17.532Z,101527.35
2019-03-28T08:13:20.055Z,101525.72
2019-03-28T08:17:23.437Z,101528.48
2019-03-28T08:21:26.787Z,101527.17
2019-03-28T08:25:30.158Z,101537.50
2019-03-28T08:29:33.416Z,101530.28
2019-03-28T08:33:39.119Z,101532.58
2019-03-28T08:37:42.882Z,101522.39
2019-03-28T08:41:48.725Z,101523.73
2019-03-28T08:45:51.244Z,101513.38
2019-03-28T08:49:55.029Z,101516.09
2019-03-28T08:53:58.364Z,101518.11
2019-03-28T08:58:01.925Z,101509.90
2019-03-28T09:02:05.258Z,101506.95
2019-03-28T09:06:08.624Z,101504.00
2019-03-28T09:10:12.200Z,101506.00
2019-03-28T09:14:15.689Z,101497.75
2019-03-28T09:18:18.959Z,101482.94
2019-03-28T09:22:22.338Z,101477.52
2019-03-28T09:26:25.654Z,101471.14
2019-03-28T09:30:48.780Z,101465.62
2019-03-28T09:34:47.629Z,101470.01
2019-03-28T09:38:51.080Z,101465.39
2019-03-28T09:42:54.687Z,101453.84
2019-03-28T09:46:58.066Z,101455.26
2019-03-28T09:51:01.439Z,101448.48
2019-03-28T09:55:05.009Z,101450.30
2019-03-28T09:59:08.293Z,101437.77
2019-03-28T10:03:11.644Z,101446.48
2019-03-28T10:07:14.929Z,101430.32
2019-03-28T10:11:18.289Z,101421.73
2019-03-28T10:15:21.563Z,101420.28
2019-03-28T10:19:25.071Z,101412.42
2019-03-28T10:23:28.350Z,101422.97
2019-03-28T10:27:31.694Z,101405.58
2019-03-28T10:31:35.514Z,101409.55
2019-03-28T10:35:38.943Z,101411.50
2019-03-28T10:39:42.284Z,101411.44
2019-03-28T10:43:45.634Z,101410.33
2019-03-28T10:47:49.294Z,101401.70
2019-03-28T10:51:52.916Z,101396.06
2019-03-28T10:55:56.210Z,101404.27
2019-03-28T11:00:01.406Z,101409.40
2019-03-28T11:04:04.944Z,101408.89
2019-03-28T11:08:08.320Z,101401.66
2019-03-28T11:12:11.735Z,101419.08
2019-03-28T11:16:15.373Z,101408.84
2019-03-28T11:20:19.818Z,101392.69
2019-03-28T11:24:23.317Z,101393.95
2019-03-28T11:28:26.612Z,101386.13
2019-03-28T11:32:29.943Z,101385.04
2019-03-28T11:36:33.232Z,101386.79
2019-03-28T11:40:36.614Z,101374.20
2019-03-28T11:44:39.895Z,101356.38
2019-03-28T11:48:43.278Z,101350.76
2019-03-28T11:52:47.879Z,101338.75
2019-03-28T11:56:51.505Z,101331.67
2019-03-28T12:00:54.854Z,101327.03
2019-03-28T12:04:58.298Z,101322.98
2019-03-28T12:09:01.616Z,101316.34
2019-03-28T12:13:06.578Z,101317.39
2019-03-28T12:17:09.924Z,101307.36
2019-03-28T12:21:13.349Z,101307.38
2019-03-28T12:25:16.737Z,101295.51
2019-03-28T12:29:20.160Z,101291.62
2019-03-28T12:33:23.438Z,101284.45
2019-03-28T12:37:26.855Z,101283.91
2019-03-28T12:41:30.133Z,101282.63
2019-03-28T12:45:33.458Z,101271.33
2019-03-28T12:49:36.864Z,101266.36
2019-03-28T12:53:40.732Z,101255.53
2019-03-28T12:57:44.091Z,101251.63
2019-03-28T13:01:48.645Z,101249.97
2019-03-28T13:05:52.077Z,101258.45
2019-03-28T13:09:55.432Z,101244.72
2019-03-28T13:13:58.787Z,101222.83
2019-03-28T13:18:03.251Z,101212.50
2019-03-28T13:22:06.548Z,101221.44
2019-03-28T13:26:10.075Z,101214.05
2019-03-28T13:30:14.378Z,101209.67
2019-03-28T13:34:17.826Z,101206.68
2019-03-28T13:38:22.335Z,101191.28
2019-03-28T13:42:26.002Z,101193.61
2019-03-28T13:46:29.330Z,101185.61
2019-03-28T13:50:33.009Z,101176.06
2019-03-28T13:54:36.486Z,101166.53
2019-03-28T13:58:40.273Z,101164.88
2019-03-28T14:02:55.574Z,101155.87
2019-03-28T14:06:49.148Z,101151.72
2019-03-28T14:10:52.870Z,101157.16
2019-03-28T14:14:57.986Z,101159.81
2019-03-28T14:19:06.285Z,101144.38
2019-03-28T14:23:11.009Z,101121.17
2019-03-28T14:27:15.365Z,101118.53
2019-03-28T14:31:18.752Z,101115.89
2019-03-28T14:35:22.075Z,101105.73
2019-03-28T14:39:27.952Z,101105.08
2019-03-28T14:43:31.311Z,101093.33
2019-03-28T14:47:34.635Z,101091.06
2019-03-28T14:51:38.986Z,101077.89
2019-03-28T14:55:42.485Z,101074.27
2019-03-28T14:59:47.694Z,101068.02
2019-03-28T15:03:51.107Z,101065.93
2019-03-28T15:07:54.364Z,101073.53
2019-03-28T15:11:57.822Z,101059.64
2019-03-28T15:16:01.035Z,101063.37
2019-03-28T15:20:04.888Z,101063.31
2019-03-28T15:24:09.233Z,101064.36
2019-03-28T15:28:12.706Z,101056.15
2019-03-28T15:32:15.990Z,101054.42
2019-03-28T15:36:23.241Z,101076.47
2019-03-28T15:40:26.945Z,101065.42
2019-03-28T15:44:30.349Z,101067.30
2019-03-28T15:48:33.669Z,101067.13
2019-03-28T15:52:37.008Z,101075.62
2019-03-28T15:56:41.328Z,101080.56
2019-03-28T16:00:44.661Z,101075.41
2019-03-28T16:04:47.945Z,101076.90
2019-03-28T16:08:51.298Z,101072.70
2019-03-28T16:12:54.965Z,101079.09
2019-03-28T16:16:58.551Z,101072.14
2019-03-28T16:21:01.803Z,101077.29
2019-03-28T16:25:07.141Z,101087.41
2019-03-28T16:29:11.530Z,101080.39
2019-03-28T16:33:15.129Z,101065.80
2019-03-28T16:37:18.408Z,101072.91
2019-03-28T16:41:21.837Z,101061.72
2019-03-28T16:45:25.260Z,101049.64
2019-03-28T16:49:28.755Z,101047.70
2019-03-28T16:53:32.192Z,101032.45
2019-03-28T16:57:35.633Z,101043.30
2019-03-28T17:01:39.104Z,101047.70
2019-03-28T17:05:43.176Z,101066.23
2019-03-28T17:09:48.061Z,101079.42
2019-03-28T17:13:51.421Z,101089.55
2019-03-28T17:17:56.004Z,101083.40
2019-03-28T17:22:01.185Z,101076.91
2019-03-28T17:26:05.947Z,101067.23
2019-03-28T17:30:12.762Z,101066.27
2019-03-28T17:34:34.045Z,101068.43
2019-03-28T17:38:27.223Z,101054.50
2019-03-28T17:42:31.464Z,101054.88
2019-03-28T17:46:35.633Z,101054.34
2019-03-28T17:50:39.582Z,101048.11
2019-03-28T17:54:46.239Z,101046.63
2019-03-28T17:58:51.064Z,101034.86
2019-03-28T18:03:08.334Z,101040.25
2019-03-28T18:07:03.883Z,101045.95
2019-03-28T18:11:10.424Z,101042.71
2019-03-28T18:15:15.552Z,101041.14
2019-03-28T18:19:21.325Z,101039.45
2019-03-28T18:23:25.745Z,101031.80
2019-03-28T18:27:31.019Z,101037.45
2019-03-28T18:31:49.782Z,101041.42
2019-03-28T18:35:49.206Z,101023.60
2019-03-28T18:39:54.937Z,101029.11
2019-03-28T18:43:58.466Z,101031.58
2019-03-28T18:48:01.736Z,101029.36
2019-03-28T18:52:07.398Z,101032.09
2019-03-28T18:56:10.221Z,101029.97
2019-03-28T19:00:14.611Z,101023.61
2019-03-28T19:04:18.120Z,101013.30
2019-03-28T19:08:21.472Z,101018.17
2019-03-28T19:12:24.807Z,101024.18
2019-03-28T19:16:28.224Z,101013.05
2019-03-28T19:20:33.199Z,101016.59
2019-03-28T19:24:37.057Z,101011.84
2019-03-28T19:28:40.349Z,101011.27
2019-03-28T19:32:43.885Z,101006.33
2019-03-28T19:36:47.217Z,101007.72
2019-03-28T19:40:52.424Z,101011.09
2019-03-28T19:44:57.162Z,101018.02
2019-03-28T19:49:00.585Z,101014.52
2019-03-28T19:53:06.525Z,100998.74
2019-03-28T19:57:10.043Z,100998.06
2019-03-28T20:01:13.330Z,100993.88
2019-03-28T20:05:16.908Z,100998.70
2019-03-28T20:09:20.144Z,100994.45
2019-03-28T20:13:23.949Z,100985.94
2019-03-28T20:17:27.664Z,100986.08
2019-03-28T20:21:31.028Z,100980.20
2019-03-28T20:25:34.339Z,100972.05
2019-03-28T20:29:39.929Z,100968.41
2019-03-28T20:33:42.726Z,100957.75
2019-03-28T20:37:46.118Z,100967.55
2019-03-28T20:41:49.429Z,100968.59
2019-03-28T20:45:54.538Z,100961.28
2019-03-28T20:49:57.953Z,100962.29
2019-03-28T20:54:01.312Z,100954.65
2019-03-28T20:58:04.697Z,100957.30
2019-03-28T21:02:08.156Z,100952.11
2019-03-28T21:06:15.865Z,100953.84
2019-03-28T21:10:27.144Z,100949.16
2019-03-28T21:14:30.429Z,100945.59
2019-03-28T21:18:33.829Z,100942.38
2019-03-28T21:22:37.128Z,100935.30
2019-03-28T21:26:41.074Z,100941.50
2019-03-28T21:30:47.496Z,100941.44
2019-03-28T21:34:49.845Z,100950.94
2019-03-28T21:38:53.155Z,100952.20
2019-03-28T21:42:56.731Z,100943.25
2019-03-28T21:47:03.107Z,100934.40
2019-03-28T21:51:06.463Z,100933.88
2019-03-28T21:55:11.622Z,100935.17
2019-03-28T21:59:15.267Z,100930.94
2019-03-28T22:03:18.543Z,100925.71
2019-03-28T22:07:21.887Z,100933.48
2019-03-28T22:11:25.140Z,100921.13
2019-03-28T22:15:28.488Z,100913.51
2019-03-28T22:19:31.750Z,100892.19
2019-03-28T22:23:35.164Z,100896.79
2019-03-28T22:27:38.473Z,100888.04
2019-03-28T22:31:41.828Z,100881.42
2019-03-28T22:35:45.102Z,100895.72
2019-03-28T22:39:48.424Z,100884.60
2019-03-28T22:43:51.711Z,100883.70
2019-03-28T22:47:55.212Z,100878.74
2019-03-28T22:51:58.492Z,100873.86
2019-03-28T22:56:01.939Z,100878.06
2019-03-28T23:00:06.422Z,100877.73
2019-03-28T23:04:12.243Z,100870.45
2019-03-28T23:08:17.309Z,100856.16
2019-03-28T23:12:20.653Z,100866.09
2019-03-28T23:16:23.929Z,100872.67
2019-03-28T23:20:27.281Z,100870.99
2019-03-28T23:24:30.550Z,100863.34
2019-03-28T23:28:33.984Z,100850.93
2019-03-28T23:32:38.738Z,100847.58
2019-03-28T23:36:42.262Z,100847.95
2019-03-28T23:40:45.484Z,100849.04
2019-03-28T23:44:48.786Z,100837.19
2019-03-28T23:48:53.799Z,100833.28
2019-03-28T23:52:57.118Z,100825.66
2019-03-28T23:57:00.396Z,100818.65
